createdAt,value
2022-12-15T00:02:35.332Z,-0.60
2022-12-15T00:05:21.397Z,-0.50
2022-12-15T00:08:06.721Z,-0.70
2022-12-15T00:10:52.185Z,-0.90
2022-12-15T00:13:38.684Z,-1.00
2022-12-15T00:16:24.710Z,-1.00
2022-12-15T00:19:12.396Z,-1.10
2022-12-15T00:21:57.661Z,-1.30
2022-12-15T00:24:42.995Z,-1.30
2022-12-15T00:27:28.395Z,-1.40
2022-12-15T00:30:15.857Z,-1.50
2022-12-15T00:33:01.244Z,-1.60
2022-12-15T00:35:46.546Z,-1.60
2022-12-15T00:38:34.289Z,-1.60
2022-12-15T00:41:01.751Z,-1.60
2022-12-15T00:43:33.616Z,-1.50
2022-12-15T00:46:21.621Z,-1.50
2022-12-15T00:48:48.645Z,-1.50
2022-12-15T00:51:16.114Z,-1.50
2022-12-15T00:54:04.111Z,-1.30
2022-12-15T00:56:50.275Z,-1.30
2022-12-15T00:59:36.237Z,-1.30
2022-12-15T01:02:22.877Z,-1.30
2022-12-15T01:05:08.371Z,-1.20
2022-12-15T01:07:53.840Z,-1.30
2022-12-15T01:10:39.213Z,-1.30
2022-12-15T01:13:25.115Z,-1.20
2022-12-15T01:16:10.550Z,-1.20
2022-12-15T01:18:57.013Z,-1.10
2022-12-15T01:21:25.558Z,-1.10
2022-12-15T01:23:53.659Z,-1.20
2022-12-15T01:26:20.641Z,-1.30
2022-12-15T01:28:49.408Z,-1.40
2022-12-15T01:31:17.319Z,-1.50
2022-12-15T01:33:44.127Z,-1.50
2022-12-15T01:36:11.617Z,-1.50
2022-12-15T01:38:38.486Z,-1.50
2022-12-15T01:41:10.180Z,-1.30
2022-12-15T01:43:39.495Z,-1.20
2022-12-15T01:46:10.092Z,-1.10
2022-12-15T01:48:48.936Z,-1.20
2022-12-15T01:51:33.982Z,-1.30
2022-12-15T01:54:17.424Z,-1.40
2022-12-15T01:56:47.535Z,-1.50
2022-12-15T01:59:19.753Z,-1.60
2022-12-15T02:01:49.708Z,-1.60
2022-12-15T02:04:21.017Z,-1.70
2022-12-15T02:06:48.330Z,-1.70
2022-12-15T02:09:18.788Z,-1.70
2022-12-15T02:12:11.499Z,-1.80
2022-12-15T02:15:13.257Z,-1.80
2022-12-15T02:18:19.716Z,-1.60
2022-12-15T02:21:01.195Z,-1.50
2022-12-15T02:23:49.861Z,-1.40
2022-12-15T02:26:37.981Z,-1.30
2022-12-15T02:29:10.679Z,-1.20
2022-12-15T02:31:52.384Z,-1.20
2022-12-15T02:34:53.551Z,-1.20
2022-12-15T02:37:32.085Z,-1.30
2022-12-15T02:39:59.253Z,-1.40
2022-12-15T02:42:28.497Z,-1.60
2022-12-15T02:45:15.470Z,-1.60
2022-12-15T02:47:54.900Z,-1.80
2022-12-15T02:50:53.651Z,-1.80
2022-12-15T02:53:54.084Z,-1.90
2022-12-15T02:56:32.407Z,-1.90
2022-12-15T02:59:11.066Z,-1.90
2022-12-15T03:01:49.472Z,-1.90
2022-12-15T03:04:18.093Z,-2.00
2022-12-15T03:06:45.212Z,-2.00
2022-12-15T03:09:12.545Z,-2.00
2022-12-15T03:11:39.408Z,-2.00
2022-12-15T03:14:06.628Z,-2.00
2022-12-15T03:16:33.701Z,-2.00
2022-12-15T03:19:00.643Z,-2.00
2022-12-15T03:21:27.636Z,-2.00
2022-12-15T03:23:56.429Z,-1.80
2022-12-15T03:26:24.453Z,-1.70
2022-12-15T03:28:51.275Z,-1.60
2022-12-15T03:31:18.136Z,-1.60
2022-12-15T03:33:45.037Z,-1.60
2022-12-15T03:36:11.859Z,-1.70
2022-12-15T03:38:39.681Z,-1.60
2022-12-15T03:41:06.593Z,-1.60
2022-12-15T03:43:34.146Z,-1.60
2022-12-15T03:46:01.228Z,-1.80
2022-12-15T03:48:28.287Z,-1.80
2022-12-15T03:50:55.355Z,-1.90
2022-12-15T03:53:23.315Z,-1.80
2022-12-15T03:55:51.136Z,-1.70
2022-12-15T03:58:19.022Z,-1.60
2022-12-15T04:00:45.879Z,-1.70
2022-12-15T04:03:12.990Z,-1.80
2022-12-15T04:05:41.147Z,-1.90
2022-12-15T04:08:09.062Z,-1.90
2022-12-15T04:10:36.063Z,-1.90
2022-12-15T04:13:06.675Z,-1.90
2022-12-15T04:15:36.325Z,-1.90
2022-12-15T04:18:06.261Z,-2.00
2022-12-15T04:20:33.551Z,-1.90
2022-12-15T04:23:00.730Z,-2.00
2022-12-15T04:25:47.357Z,-1.90
2022-12-15T04:28:33.080Z,-1.90
2022-12-15T04:31:25.510Z,-1.80
2022-12-15T04:34:14.385Z,-1.70
2022-12-15T04:37:03.484Z,-1.60
2022-12-15T04:39:49.177Z,-1.60
2022-12-15T04:42:35.027Z,-1.60
2022-12-15T04:45:24.326Z,-1.70
2022-12-15T04:48:11.421Z,-1.50
2022-12-15T04:50:57.472Z,-1.40
2022-12-15T04:53:43.084Z,-1.50
2022-12-15T04:56:31.099Z,-1.70
2022-12-15T04:59:18.560Z,-1.60
2022-12-15T05:02:03.958Z,-1.50
2022-12-15T05:04:49.774Z,-1.40
2022-12-15T05:07:36.152Z,-1.40
2022-12-15T05:10:22.514Z,-1.40
2022-12-15T05:13:07.931Z,-1.60
2022-12-15T05:15:53.774Z,-1.70
2022-12-15T05:18:39.514Z,-1.80
2022-12-15T05:21:25.777Z,-1.80
2022-12-15T05:24:12.135Z,-1.80
2022-12-15T05:26:57.386Z,-1.80
2022-12-15T05:29:44.560Z,-1.70
2022-12-15T05:32:13.257Z,-1.60
2022-12-15T05:34:40.102Z,-1.50
2022-12-15T05:37:07.896Z,-1.40
2022-12-15T05:39:35.148Z,-1.40
2022-12-15T05:42:02.044Z,-1.40
2022-12-15T05:44:29.940Z,-1.40
2022-12-15T05:46:57.983Z,-1.40
2022-12-15T05:49:25.928Z,-1.40
2022-12-15T05:51:53.801Z,-1.30
2022-12-15T05:54:21.348Z,-1.40
2022-12-15T05:56:50.026Z,-1.40
2022-12-15T05:59:17.823Z,-1.40
2022-12-15T06:01:45.128Z,-1.60
2022-12-15T06:04:16.764Z,-1.60
2022-12-15T06:06:43.907Z,-1.60
2022-12-15T06:09:12.048Z,-1.70
2022-12-15T06:11:39.181Z,-1.60
2022-12-15T06:14:08.664Z,-1.70
2022-12-15T06:16:42.585Z,-1.70
2022-12-15T06:19:19.336Z,-1.70
2022-12-15T06:21:46.322Z,-1.70
2022-12-15T06:24:14.403Z,-1.60
2022-12-15T06:26:41.501Z,-1.60
2022-12-15T06:29:10.734Z,-1.50
2022-12-15T06:31:39.909Z,-1.30
2022-12-15T06:34:13.559Z,-1.50
2022-12-15T06:36:40.480Z,-1.50
2022-12-15T06:39:11.420Z,-1.50
2022-12-15T06:41:40.107Z,-1.50
2022-12-15T06:44:07.739Z,-1.50
2022-12-15T06:46:35.752Z,-1.50
2022-12-15T06:49:03.264Z,-1.40
2022-12-15T06:51:31.216Z,-1.30
2022-12-15T06:53:59.083Z,-1.20
2022-12-15T06:56:34.422Z,-1.20
2022-12-15T06:59:03.545Z,-1.30
2022-12-15T07:01:31.188Z,-1.40
2022-12-15T07:04:03.429Z,-1.50
2022-12-15T07:06:39.037Z,-1.60
2022-12-15T07:09:12.461Z,-1.60
2022-12-15T07:11:44.147Z,-1.60
2022-12-15T07:14:12.138Z,-1.60
2022-12-15T07:16:39.241Z,-1.50
2022-12-15T07:19:06.202Z,-1.50
2022-12-15T07:21:34.128Z,-1.50
2022-12-15T07:24:02.756Z,-1.40
2022-12-15T07:26:30.540Z,-1.40
2022-12-15T07:28:57.592Z,-1.40
2022-12-15T07:31:26.655Z,-1.40
2022-12-15T07:33:55.658Z,-1.30
2022-12-15T07:36:23.626Z,-1.30
2022-12-15T07:38:51.988Z,-1.20
2022-12-15T07:41:21.066Z,-1.10
2022-12-15T07:43:48.565Z,-1.10
2022-12-15T07:46:16.536Z,-1.20
2022-12-15T07:48:43.515Z,-1.10
2022-12-15T07:51:18.828Z,-1.20
2022-12-15T07:53:49.753Z,-1.30
2022-12-15T07:56:19.382Z,-1.30
2022-12-15T07:58:46.783Z,-1.40
2022-12-15T08:01:14.897Z,-1.30
2022-12-15T08:03:43.328Z,-1.40
2022-12-15T08:06:14.950Z,-1.30
2022-12-15T08:08:43.311Z,-1.30
2022-12-15T08:11:14.305Z,-1.30
2022-12-15T08:16:31.055Z,-1.40
2022-12-15T08:18:57.954Z,-1.40
2022-12-15T08:21:26.003Z,-1.50
2022-12-15T08:23:53.094Z,-1.50
2022-12-15T08:26:29.804Z,-1.50
2022-12-15T08:29:11.743Z,-1.40
2022-12-15T08:31:45.762Z,-1.50
2022-12-15T08:34:14.653Z,-1.40
2022-12-15T08:36:41.541Z,-1.30
2022-12-15T08:39:08.422Z,-1.20
2022-12-15T08:41:35.415Z,-1.20
2022-12-15T08:44:03.776Z,-1.20
2022-12-15T08:46:34.065Z,-1.20
2022-12-15T08:49:02.614Z,-1.10
2022-12-15T08:51:31.128Z,-1.00
2022-12-15T08:53:59.267Z,-1.00
2022-12-15T08:56:27.792Z,-1.10
2022-12-15T08:58:57.288Z,-1.10
2022-12-15T09:01:27.038Z,-1.00
2022-12-15T09:03:56.397Z,-0.80
2022-12-15T09:06:27.352Z,-0.70
2022-12-15T09:08:59.603Z,-0.60
2022-12-15T09:11:27.798Z,-0.60
2022-12-15T09:13:54.905Z,-0.70
2022-12-15T09:16:23.627Z,-0.80
2022-12-15T09:18:54.520Z,-0.80
2022-12-15T09:21:24.058Z,-0.70
2022-12-15T09:23:52.175Z,-0.50
2022-12-15T09:26:22.833Z,-0.40
2022-12-15T09:28:51.011Z,-0.30
2022-12-15T09:31:22.306Z,-0.20
2022-12-15T09:33:53.387Z,-0.10
2022-12-15T09:36:20.364Z,0.10
2022-12-15T09:38:47.372Z,0.10
2022-12-15T09:41:24.482Z,0.00
2022-12-15T09:44:12.576Z,0.00
2022-12-15T09:47:05.958Z,0.10
2022-12-15T09:49:55.878Z,0.20
2022-12-15T09:52:28.010Z,0.30
2022-12-15T09:54:55.942Z,0.40
2022-12-15T09:57:37.650Z,0.30
2022-12-15T10:00:21.851Z,0.30
2022-12-15T10:03:28.571Z,0.40
2022-12-15T10:06:18.977Z,0.60
2022-12-15T10:08:54.854Z,0.80
2022-12-15T10:11:55.523Z,1.00
2022-12-15T10:14:27.587Z,1.10
2022-12-15T10:17:06.393Z,1.00
2022-12-15T10:19:52.029Z,0.90
2022-12-15T10:22:25.762Z,0.90
2022-12-15T10:25:11.075Z,1.10
2022-12-15T10:28:06.932Z,1.60
2022-12-15T10:30:35.334Z,2.60
2022-12-15T10:33:26.183Z,3.20
2022-12-15T10:35:55.976Z,4.10
2022-12-15T10:38:42.590Z,4.60
2022-12-15T10:41:12.738Z,5.20
2022-12-15T10:43:42.466Z,5.90
2022-12-15T10:46:18.655Z,6.30
2022-12-15T10:48:49.977Z,7.30
2022-12-15T10:51:21.953Z,8.10
2022-12-15T10:53:55.490Z,8.50
2022-12-15T10:56:33.257Z,8.50
2022-12-15T10:59:23.157Z,7.90
2022-12-15T11:01:52.313Z,7.30
2022-12-15T11:04:31.379Z,6.90
2022-12-15T11:07:00.918Z,6.80
2022-12-15T11:09:39.107Z,6.50
2022-12-15T11:12:40.003Z,6.50
2022-12-15T11:15:31.352Z,6.60
2022-12-15T11:18:29.542Z,8.10
2022-12-15T11:21:00.927Z,8.50
2022-12-15T11:24:09.502Z,7.70
2022-12-15T11:26:56.825Z,8.10
2022-12-15T11:29:34.818Z,9.40
2022-12-15T11:32:07.011Z,9.50
2022-12-15T11:34:42.481Z,10.10
2022-12-15T11:37:36.283Z,9.20
2022-12-15T11:40:43.221Z,8.60
2022-12-15T11:43:40.874Z,8.60
2022-12-15T11:46:21.341Z,9.20
2022-12-15T11:49:06.282Z,8.80
2022-12-15T11:51:42.501Z,8.40
2022-12-15T11:54:39.694Z,9.10
2022-12-15T11:57:39.124Z,9.90
2022-12-15T12:00:09.257Z,10.00
2022-12-15T12:03:18.211Z,9.90
2022-12-15T12:06:13.389Z,11.00
2022-12-15T12:09:07.026Z,11.10
2022-12-15T12:12:24.599Z,10.40
2022-12-15T12:15:08.912Z,10.70
2022-12-15T12:17:43.897Z,11.10
2022-12-15T12:20:25.146Z,10.70
2022-12-15T12:23:15.390Z,10.40
2022-12-15T12:25:51.981Z,10.00
2022-12-15T12:29:01.914Z,9.50
2022-12-15T12:31:45.644Z,8.90
2022-12-15T12:34:21.530Z,8.50
2022-12-15T12:36:50.028Z,7.80
2022-12-15T12:39:21.107Z,7.20
2022-12-15T12:42:16.128Z,7.00
2022-12-15T12:44:46.537Z,6.60
2022-12-15T12:47:28.070Z,6.20
2022-12-15T12:50:18.825Z,5.90
2022-12-15T12:52:52.776Z,5.60
2022-12-15T12:55:49.685Z,5.30
2022-12-15T12:58:38.354Z,5.30
2022-12-15T13:01:05.252Z,5.10
2022-12-15T13:03:32.577Z,5.00
2022-12-15T13:06:21.939Z,4.90
2022-12-15T13:08:55.822Z,4.90
2022-12-15T13:11:53.699Z,4.80
2022-12-15T13:14:34.810Z,4.80
2022-12-15T13:17:29.016Z,4.80
2022-12-15T13:19:59.281Z,4.70
2022-12-15T13:22:42.079Z,4.70
2022-12-15T13:25:41.362Z,4.70
2022-12-15T13:28:36.280Z,4.70
2022-12-15T13:31:21.767Z,4.60
2022-12-15T13:33:54.886Z,4.60
2022-12-15T13:36:37.101Z,4.50
2022-12-15T13:39:27.834Z,4.60
2022-12-15T13:44:55.073Z,4.50
2022-12-15T13:47:28.783Z,4.50
2022-12-15T13:50:03.253Z,4.60
2022-12-15T13:55:38.365Z,4.70
2022-12-15T13:58:18.040Z,4.60
2022-12-15T14:00:53.631Z,4.40
2022-12-15T14:03:20.949Z,4.40
2022-12-15T14:05:59.524Z,4.30
2022-12-15T14:08:29.739Z,4.30
2022-12-15T14:11:00.053Z,4.30
2022-12-15T14:13:31.907Z,4.30
2022-12-15T14:16:28.342Z,4.30
2022-12-15T14:19:17.491Z,4.30
2022-12-15T14:21:59.452Z,4.30
2022-12-15T14:24:40.422Z,4.30
2022-12-15T14:27:08.968Z,4.30
2022-12-15T14:29:36.035Z,4.30
2022-12-15T14:32:03.602Z,4.40
2022-12-15T14:34:41.774Z,4.40
2022-12-15T14:37:18.991Z,4.40
2022-12-15T14:39:50.441Z,4.40
2022-12-15T14:42:27.820Z,4.40
2022-12-15T14:44:58.365Z,4.30
2022-12-15T14:47:30.339Z,4.30
2022-12-15T14:50:04.566Z,4.40
2022-12-15T14:52:38.909Z,4.40
2022-12-15T14:55:27.741Z,4.20
2022-12-15T14:57:54.568Z,4.10
2022-12-15T15:00:26.151Z,4.30
2022-12-15T15:03:18.884Z,4.20
2022-12-15T15:06:12.692Z,4.10
2022-12-15T15:08:48.970Z,3.90
2022-12-15T15:11:36.853Z,3.90
2022-12-15T15:14:11.186Z,4.00
2022-12-15T15:16:38.283Z,3.90
2022-12-15T15:19:05.576Z,3.80
2022-12-15T15:21:39.052Z,3.70
2022-12-15T15:24:12.165Z,3.70
2022-12-15T15:26:43.137Z,3.70
2022-12-15T15:29:41.029Z,3.60
2022-12-15T15:32:22.261Z,3.60
2022-12-15T15:34:49.540Z,3.60
2022-12-15T15:37:25.908Z,3.50
2022-12-15T15:39:55.035Z,3.40
2022-12-15T15:42:25.442Z,3.40
2022-12-15T15:44:57.257Z,3.30
2022-12-15T15:47:25.459Z,3.20
2022-12-15T15:49:54.744Z,3.20
2022-12-15T15:52:22.313Z,3.20
2022-12-15T15:54:49.636Z,3.20
2022-12-15T15:57:19.130Z,3.10
2022-12-15T15:59:46.988Z,3.10
2022-12-15T16:02:15.548Z,3.00
2022-12-15T16:04:44.008Z,3.00
2022-12-15T16:07:23.468Z,3.00
2022-12-15T16:09:51.633Z,2.90
2022-12-15T16:12:31.048Z,2.90
2022-12-15T16:14:57.878Z,2.80
2022-12-15T16:17:25.764Z,2.80
2022-12-15T16:19:52.610Z,2.80
2022-12-15T16:22:21.376Z,2.70
2022-12-15T16:24:48.739Z,2.70
2022-12-15T16:27:16.314Z,2.60
2022-12-15T16:29:43.595Z,2.60
2022-12-15T16:32:12.459Z,2.60
2022-12-15T16:34:39.440Z,2.70
2022-12-15T16:37:09.012Z,2.60
2022-12-15T16:39:36.423Z,2.50
2022-12-15T16:42:12.119Z,2.40
2022-12-15T16:44:38.953Z,2.40
2022-12-15T16:47:05.789Z,2.40
2022-12-15T16:49:39.851Z,2.30
2022-12-15T16:52:24.422Z,2.40
2022-12-15T16:54:51.386Z,2.40
2022-12-15T16:57:18.568Z,2.40
2022-12-15T16:59:46.261Z,2.50
2022-12-15T17:02:28.894Z,2.50
2022-12-15T17:04:58.268Z,2.50
2022-12-15T17:07:27.702Z,2.40
2022-12-15T17:09:56.531Z,2.40
2022-12-15T17:12:25.155Z,2.50
2022-12-15T17:14:52.099Z,2.60
2022-12-15T17:17:20.069Z,2.70
2022-12-15T17:20:19.879Z,2.60
2022-12-15T17:22:36.746Z,2.90
2022-12-15T17:25:05.030Z,2.80
2022-12-15T17:27:33.052Z,2.80
2022-12-15T17:30:01.918Z,2.90
2022-12-15T17:32:28.843Z,3.10
2022-12-15T17:34:55.874Z,3.10
2022-12-15T17:37:28.017Z,3.00
2022-12-15T17:39:58.428Z,3.00
2022-12-15T17:42:28.463Z,2.80
2022-12-15T17:44:57.359Z,2.80
2022-12-15T17:47:25.641Z,2.80
2022-12-15T17:49:55.126Z,2.80
2022-12-15T17:52:30.494Z,2.80
2022-12-15T17:55:03.231Z,2.80
2022-12-15T17:57:33.402Z,2.90
2022-12-15T18:00:02.926Z,2.90
2022-12-15T18:02:49.963Z,3.00
2022-12-15T18:05:18.879Z,2.90
2022-12-15T18:07:49.480Z,3.00
2022-12-15T18:10:43.755Z,2.70
2022-12-15T18:13:41.930Z,2.50
2022-12-15T18:16:10.347Z,2.60
2022-12-15T18:18:38.402Z,2.60
2022-12-15T18:21:15.440Z,2.50
2022-12-15T18:23:46.426Z,2.50
2022-12-15T18:26:14.729Z,2.40
2022-12-15T18:28:41.766Z,2.30
2022-12-15T18:31:27.574Z,2.10
2022-12-15T18:34:00.953Z,2.00
2022-12-15T18:36:31.299Z,2.00
2022-12-15T18:38:59.419Z,2.10
2022-12-15T18:41:28.331Z,2.20
2022-12-15T18:43:58.588Z,2.10
2022-12-15T18:46:28.576Z,2.10
2022-12-15T18:48:56.544Z,2.00
2022-12-15T18:51:23.979Z,1.90
2022-12-15T18:53:54.218Z,2.00
2022-12-15T18:56:21.743Z,2.00
2022-12-15T18:58:48.764Z,2.00
2022-12-15T19:01:19.351Z,2.00
2022-12-15T19:03:50.281Z,2.00
2022-12-15T19:06:34.847Z,2.10
2022-12-15T19:09:14.577Z,1.90
2022-12-15T19:12:03.213Z,1.80
2022-12-15T19:14:42.846Z,1.80
2022-12-15T19:17:44.757Z,1.80
2022-12-15T19:20:37.887Z,1.70
2022-12-15T19:23:05.565Z,1.80
2022-12-15T19:25:33.018Z,1.80
2022-12-15T19:28:01.721Z,1.80
2022-12-15T19:30:31.546Z,1.70
2022-12-15T19:32:58.557Z,1.60
2022-12-15T19:35:31.370Z,1.60
2022-12-15T19:38:01.877Z,1.60
2022-12-15T19:40:32.316Z,1.70
2022-12-15T19:43:00.937Z,1.60
2022-12-15T19:45:31.904Z,1.50
2022-12-15T19:47:59.778Z,1.40
2022-12-15T19:50:30.955Z,1.40
2022-12-15T19:53:03.608Z,1.30
2022-12-15T19:55:34.650Z,1.30
2022-12-15T19:58:21.021Z,1.30
2022-12-15T20:00:52.058Z,1.40
2022-12-15T20:03:20.827Z,1.50
2022-12-15T20:05:53.396Z,1.30
2022-12-15T20:08:23.979Z,1.20
2022-12-15T20:10:52.466Z,1.10
2022-12-15T20:13:21.409Z,1.10
2022-12-15T20:15:50.360Z,1.10
2022-12-15T20:18:19.361Z,1.20
2022-12-15T20:20:49.249Z,1.20
2022-12-15T20:23:25.954Z,1.10
2022-12-15T20:25:56.058Z,1.20
2022-12-15T20:28:27.723Z,1.20
2022-12-15T20:31:05.392Z,1.20
2022-12-15T20:33:32.793Z,1.10
2022-12-15T20:36:00.951Z,1.20
2022-12-15T20:38:35.773Z,1.30
2022-12-15T20:41:04.183Z,1.30
2022-12-15T20:43:35.315Z,1.20
2022-12-15T20:46:14.596Z,1.30
2022-12-15T20:48:44.879Z,1.30
2022-12-15T20:51:39.232Z,1.40
2022-12-15T20:54:13.257Z,1.40
2022-12-15T20:56:42.983Z,1.40
2022-12-15T20:59:10.577Z,1.30
2022-12-15T21:01:41.700Z,1.30
2022-12-15T21:04:29.749Z,1.30
2022-12-15T21:06:59.019Z,1.40
2022-12-15T21:09:26.981Z,1.40
2022-12-15T21:11:55.154Z,1.30
2022-12-15T21:14:24.260Z,1.40
2022-12-15T21:16:51.438Z,1.40
2022-12-15T21:19:20.915Z,1.30
2022-12-15T21:21:54.908Z,1.30
2022-12-15T21:24:28.453Z,1.10
2022-12-15T21:26:56.416Z,1.00
2022-12-15T21:29:29.592Z,0.90
2022-12-15T21:32:17.108Z,0.90
2022-12-15T21:34:49.048Z,0.80
2022-12-15T21:37:28.591Z,0.80
2022-12-15T21:39:56.504Z,0.80
2022-12-15T21:42:23.958Z,0.70
2022-12-15T21:44:50.973Z,0.70
2022-12-15T21:47:24.879Z,0.60
2022-12-15T21:49:52.853Z,0.60
2022-12-15T21:52:21.206Z,0.70
2022-12-15T21:54:48.134Z,0.70
2022-12-15T21:57:16.071Z,0.60
2022-12-15T21:59:44.301Z,0.60
2022-12-15T22:02:24.551Z,0.60
2022-12-15T22:04:52.549Z,0.60
2022-12-15T22:07:20.534Z,0.60
2022-12-15T22:09:49.704Z,0.60
2022-12-15T22:12:23.282Z,0.50
2022-12-15T22:14:52.233Z,0.50
2022-12-15T22:17:22.260Z,0.40
2022-12-15T22:19:50.186Z,0.30
2022-12-15T22:22:17.527Z,0.30
2022-12-15T22:24:45.561Z,0.20
2022-12-15T22:27:21.044Z,0.30
2022-12-15T22:29:50.199Z,0.20
2022-12-15T22:32:17.891Z,0.20
2022-12-15T22:34:45.027Z,0.20
2022-12-15T22:37:12.996Z,0.20
2022-12-15T22:39:40.159Z,0.20
2022-12-15T22:42:07.356Z,0.10
2022-12-15T22:44:37.570Z,0.20
2022-12-15T22:47:06.249Z,0.20
2022-12-15T22:49:38.230Z,0.20
2022-12-15T22:52:19.573Z,0.30
2022-12-15T22:54:47.822Z,0.40
2022-12-15T22:57:23.922Z,0.30
2022-12-15T23:00:00.721Z,0.40
2022-12-15T23:02:31.317Z,0.40
2022-12-15T23:04:58.387Z,0.30
2022-12-15T23:07:26.118Z,0.30
2022-12-15T23:10:14.550Z,0.40
2022-12-15T23:12:41.691Z,0.50
2022-12-15T23:15:27.675Z,0.60
2022-12-15T23:17:56.782Z,0.50
2022-12-15T23:20:24.699Z,0.50
2022-12-15T23:22:53.736Z,0.60
2022-12-15T23:25:21.846Z,0.60
2022-12-15T23:27:50.187Z,0.60
2022-12-15T23:30:17.814Z,0.60
2022-12-15T23:32:44.838Z,0.50
2022-12-15T23:35:11.796Z,0.60
2022-12-15T23:37:38.920Z,0.60
2022-12-15T23:40:07.823Z,0.60
2022-12-15T23:42:35.793Z,0.60
2022-12-15T23:45:04.587Z,0.70
2022-12-15T23:47:32.059Z,0.80
2022-12-15T23:49:59.216Z,0.90
2022-12-15T23:52:28.634Z,0.90
2022-12-15T23:54:55.455Z,0.80
2022-12-15T23:57:24.661Z,0.90
2022-12-15T23:59:51.733Z,0.90
